Main page
METAR-TAF:

METAR-TAF

Airports :

Kerman, Iran

Kerman Airport

latitude: 30-15N, longitude: 056-58E, elevation: 1748 m

Current weather observation

The report was made 30 minutes ago, at 09:30 UTC
Wind 10 kt from the West/Northwest
Temperature 25°C
Humidity 6%
Pressure 1018 hPa
Visibility 10 km or more
no clouds below 1500 m and no cumulonimbus

METAR: OIKK 220930Z 29010KT CAVOK 25/M15 Q1018 A3007

Time: 13:30 (10:00 UTC)

Forecast

The report was made 4 hours and 30 minutes ago, at 05:30 UTC
Forecast valid from 22 at 06 UTC to 23 at 12 UTC
Wind 4 kt from the South
Visibility 10 km or more
no clouds below 1500 m and no cumulonimbus
Temporary
from 22 at 07 UTC to 22 at 13 UTC
Wind 14 kt from the West

TAF: OIKK 220530Z 2206/2312 18002MPS CAVOK TEMPO 2207/2213 270007MPS

Weather observations and forecasts of more than 4000 airports (METAR and TAF reports).

The available stations are represented by yellow and red dots on the map.

Hover mouse over dot to see the name of the station.

Then click to see weather observations and forecasts.

To change the map : click on the green buttons with a black cross to zoom in, on the green button with a dash to zoom out, or on the green arrows for adjacent maps.


METAR-TAF: